Time;durP1;ratioP1;P1;durP2;ratioP2;P2;SDS_P1;SDS_P2;PMS_P1;PMS_P2;Temp;Humidity;BMP_temperature;BMP_pressure;BME280_temperature;BME280_humidity;BME280_pressure;Samples;Min_cycle;Max_cycle;Signal;HPM_P1;HPM_P2
2023/09/02 00:02:02;;;;;;;7.85;4.10;;;13.80;99.90;;;;;;5042230;28;20554;-80
2023/09/02 00:04:29;;;;;;;4.60;4.20;;;13.80;99.90;;;;;;5039760;28;20053;-80
2023/09/02 00:06:55;;;;;;;5.53;4.10;;;13.70;99.90;;;;;;5038790;28;20045;-80
2023/09/02 00:09:20;;;;;;;5.78;4.45;;;14.00;99.90;;;;;;5040248;28;20042;-81
2023/09/02 00:11:46;;;;;;;5.15;4.50;;;13.70;99.90;;;;;;5047973;28;20124;-79
2023/09/02 00:14:12;;;;;;;7.10;4.50;;;13.70;99.90;;;;;;5041902;28;20401;-79
2023/09/02 00:16:38;;;;;;;6.15;4.22;;;13.70;99.90;;;;;;5042546;28;20072;-80
2023/09/02 00:19:04;;;;;;;4.45;3.97;;;13.70;99.90;;;;;;5042561;28;20068;-80
2023/09/02 00:21:33;;;;;;;6.53;4.53;;;13.70;99.90;;;;;;5039339;28;20033;-79
2023/09/02 00:24:03;;;;;;;4.20;3.80;;;13.70;99.90;;;;;;5045293;28;20041;-80
2023/09/02 00:26:32;;;;;;;5.88;4.03;;;13.80;99.90;;;;;;5048053;28;20497;-80
2023/09/02 00:28:59;;;;;;;5.88;3.97;;;13.80;99.90;;;;;;5038696;28;20091;-80
2023/09/02 00:31:25;;;;;;;4.88;3.75;;;14.50;99.90;;;;;;5040979;28;20061;-80
2023/09/02 00:33:50;;;;;;;5.78;4.10;;;13.80;99.90;;;;;;5032187;28;20464;-80
2023/09/02 00:36:16;;;;;;;3.88;3.58;;;13.80;99.90;;;;;;5024252;28;20055;-80
2023/09/02 00:38:42;;;;;;;3.65;3.25;;;13.80;99.90;;;;;;5031056;28;20476;-80
2023/09/02 00:41:13;;;;;;;4.25;3.92;;;13.80;99.90;;;;;;5043096;28;20053;-79
2023/09/02 00:43:39;;;;;;;5.47;4.07;;;13.80;99.90;;;;;;5036453;28;20061;-81
2023/09/02 00:46:08;;;;;;;5.35;3.97;;;14.00;99.90;;;;;;5046224;28;20045;-78
2023/09/02 00:48:33;;;;;;;5.22;4.50;;;13.70;99.90;;;;;;5043310;28;20065;-79
2023/09/02 00:50:59;;;;;;;9.65;4.38;;;13.70;99.90;;;;;;5047744;28;20080;-78
2023/09/02 00:53:25;;;;;;;3.53;3.22;;;13.70;99.90;;;;;;5046268;28;20041;-80
2023/09/02 00:55:52;;;;;;;4.43;3.50;;;13.80;99.90;;;;;;5045967;28;20579;-80
2023/09/02 00:58:19;;;;;;;5.15;3.85;;;14.40;99.90;;;;;;5035390;28;20086;-80
2023/09/02 01:00:47;;;;;;;5.57;3.88;;;13.70;99.90;;;;;;5042887;28;20051;-81
2023/09/02 01:03:14;;;;;;;3.85;3.28;;;13.70;99.90;;;;;;5042955;28;20041;-80
2023/09/02 01:05:40;;;;;;;6.40;4.43;;;13.50;99.90;;;;;;5037626;28;20497;-81
2023/09/02 01:08:06;;;;;;;3.78;3.40;;;13.60;99.90;;;;;;5046916;28;20045;-79
2023/09/02 01:10:36;;;;;;;4.00;3.58;;;13.60;99.90;;;;;;5044816;28;20052;-80
2023/09/02 01:13:03;;;;;;;3.65;3.35;;;13.70;99.90;;;;;;5054505;28;20048;-80
2023/09/02 01:15:30;;;;;;;4.10;3.75;;;13.60;99.90;;;;;;5051269;28;20548;-81
2023/09/02 01:17:56;;;;;;;3.90;3.28;;;13.70;99.90;;;;;;5043600;28;20041;-80
2023/09/02 01:20:27;;;;;;;5.65;4.03;;;13.60;99.90;;;;;;5052639;28;20048;-80
2023/09/02 01:23:09;;;;;;;5.22;3.97;;;13.60;99.90;;;;;;5036138;28;20128;-80
2023/09/02 01:26:07;;;;;;;5.78;4.00;;;13.60;99.90;;;;;;5044583;28;20110;-80
2023/09/02 01:28:40;;;;;;;5.47;3.60;;;13.60;99.90;;;;;;5044980;28;20112;-79
2023/09/02 01:31:07;;;;;;;5.38;3.33;;;13.60;99.90;;;;;;5035893;28;20068;-79
2023/09/02 01:33:33;;;;;;;4.10;3.25;;;13.60;99.90;;;;;;5044505;28;20052;-80
2023/09/02 01:36:00;;;;;;;3.92;3.45;;;13.60;99.90;;;;;;5044833;28;20057;-81
2023/09/02 01:38:28;;;;;;;6.22;3.70;;;13.60;99.90;;;;;;5044061;28;20055;-80
2023/09/02 01:40:56;;;;;;;4.03;3.58;;;13.60;99.90;;;;;;5041608;28;20041;-80
2023/09/02 01:43:23;;;;;;;4.15;3.53;;;14.30;99.90;;;;;;5042140;28;20068;-79
2023/09/02 01:45:51;;;;;;;3.55;3.22;;;13.60;99.90;;;;;;5048171;28;20045;-80
2023/09/02 01:48:18;;;;;;;6.47;4.30;;;14.50;99.90;;;;;;5042059;28;20053;-79
2023/09/02 01:50:45;;;;;;;5.47;3.85;;;13.60;99.90;;;;;;5045248;28;20033;-81
2023/09/02 01:53:10;;;;;;;4.32;3.95;;;13.60;99.90;;;;;;5044108;28;20041;-80
2023/09/02 01:55:36;;;;;;;4.28;3.97;;;14.00;99.90;;;;;;5042550;28;20079;-80
2023/09/02 01:58:02;;;;;;;7.18;3.60;;;13.50;99.90;;;;;;5041533;28;20087;-80
2023/09/02 02:00:28;;;;;;;4.07;3.67;;;13.50;99.90;;;;;;5049439;28;20041;-80
2023/09/02 02:02:54;;;;;;;5.05;3.85;;;13.50;99.90;;;;;;5044804;28;20033;-80
2023/09/02 02:05:43;;;;;;;3.85;3.45;;;13.50;99.90;;;;;;5044930;28;20040;-81
2023/09/02 02:08:16;;;;;;;3.17;2.88;;;13.50;99.90;;;;;;5034024;28;20053;-81
2023/09/02 02:10:44;;;;;;;3.95;3.22;;;13.50;99.90;;;;;;5041728;28;20045;-80
2023/09/02 02:13:10;;;;;;;3.72;3.42;;;13.50;99.90;;;;;;5033928;28;20057;-80
2023/09/02 02:15:36;;;;;;;3.72;3.35;;;13.50;99.90;;;;;;5034173;28;20045;-80
2023/09/02 02:18:01;;;;;;;4.13;3.78;;;13.50;99.90;;;;;;5047121;28;20041;-80
2023/09/02 02:20:37;;;;;;;6.47;3.67;;;13.50;99.90;;;;;;5042738;28;20072;-80
2023/09/02 02:23:04;;;;;;;4.90;3.85;;;13.50;99.90;;;;;;5043739;28;20041;-79
2023/09/02 02:25:29;;;;;;;9.57;8.50;;;13.50;99.90;;;;;;5043374;28;20496;-80
2023/09/02 02:27:55;;;;;;;10.43;9.40;;;13.50;99.90;;;;;;5040697;28;20044;-80
2023/09/02 02:30:21;;;;;;;8.25;7.45;;;13.50;99.90;;;;;;5048729;28;20095;-80
2023/09/02 02:32:46;;;;;;;9.35;8.45;;;13.40;99.90;;;;;;5043677;28;20102;-79
2023/09/02 02:35:12;;;;;;;9.20;8.30;;;13.40;99.90;;;;;;5043693;28;20052;-80
2023/09/02 02:37:38;;;;;;;8.48;7.68;;;13.40;99.90;;;;;;5032519;28;20048;-80
2023/09/02 02:40:05;;;;;;;7.95;7.25;;;14.20;99.90;;;;;;5035060;28;20041;-80
2023/09/02 02:42:30;;;;;;;10.13;7.55;;;13.30;99.90;;;;;;5046405;28;20124;-78
2023/09/02 02:44:56;;;;;;;8.07;7.18;;;13.30;99.90;;;;;;5052258;28;20119;-80
2023/09/02 02:47:22;;;;;;;7.85;7.00;;;13.30;99.90;;;;;;5037475;28;20041;-80
2023/09/02 02:49:47;;;;;;;8.50;7.72;;;13.30;99.90;;;;;;5043035;28;20531;-80
2023/09/02 02:52:13;;;;;;;7.90;7.10;;;13.30;99.90;;;;;;5034673;28;20045;-80
2023/09/02 02:54:39;;;;;;;7.00;6.30;;;13.20;99.90;;;;;;5041559;28;20045;-80
2023/09/02 02:57:04;;;;;;;6.85;6.10;;;13.20;99.90;;;;;;5039930;28;20469;-80
2023/09/02 02:59:30;;;;;;;6.68;6.18;;;13.10;99.90;;;;;;5043532;28;20117;-80
2023/09/02 03:01:55;;;;;;;6.40;5.80;;;13.10;99.90;;;;;;5060769;28;20043;-80
2023/09/02 03:04:21;;;;;;;6.25;4.95;;;13.70;99.90;;;;;;5056475;28;20041;-80
2023/09/02 03:06:47;;;;;;;5.43;4.93;;;13.20;99.90;;;;;;5040160;28;20040;-81
2023/09/02 03:09:12;;;;;;;6.80;5.25;;;13.00;99.90;;;;;;5034234;28;20044;-80
2023/09/02 03:11:38;;;;;;;5.68;4.43;;;13.00;99.90;;;;;;5042969;28;20542;-81
2023/09/02 03:14:04;;;;;;;5.68;4.75;;;13.00;99.90;;;;;;5043104;28;20039;-80
2023/09/02 03:16:29;;;;;;;8.10;4.95;;;13.00;99.90;;;;;;5049598;28;20088;-80
2023/09/02 03:18:55;;;;;;;5.97;5.05;;;13.00;99.90;;;;;;5033138;28;20033;-79
2023/09/02 03:21:20;;;;;;;5.70;5.18;;;13.00;99.90;;;;;;5044569;28;20557;-80
2023/09/02 03:23:46;;;;;;;6.28;5.03;;;13.10;99.90;;;;;;5042140;28;20040;-79
2023/09/02 03:26:16;;;;;;;5.65;5.10;;;13.00;99.90;;;;;;5043006;28;20049;-80
2023/09/02 03:28:42;;;;;;;5.38;4.97;;;13.00;99.90;;;;;;5031831;28;20504;-79
2023/09/02 03:31:09;;;;;;;5.78;4.43;;;13.60;99.90;;;;;;5044094;28;20058;-80
2023/09/02 03:33:35;;;;;;;4.78;4.38;;;12.90;99.90;;;;;;5032858;28;20098;-79
2023/09/02 03:36:01;;;;;;;7.28;4.63;;;12.90;99.90;;;;;;5033615;28;20045;-79
2023/09/02 03:38:27;;;;;;;4.35;3.95;;;13.20;99.90;;;;;;5016834;28;20417;-80
2023/09/02 03:40:53;;;;;;;4.10;3.70;;;13.10;99.90;;;;;;5042657;28;20036;-79
2023/09/02 03:43:18;;;;;;;6.70;4.05;;;13.00;99.90;;;;;;5044389;28;20390;-81
2023/09/02 03:45:48;;;;;;;4.80;4.40;;;13.10;99.90;;;;;;5032757;28;20045;-80
2023/09/02 03:48:14;;;;;;;4.93;4.35;;;13.10;99.90;;;;;;5046901;28;20123;-79
2023/09/02 03:50:59;;;;;;;5.03;4.53;;;13.10;99.90;;;;;;5049833;28;20119;-80
2023/09/02 03:53:24;;;;;;;6.10;5.00;;;13.10;99.90;;;;;;5038840;28;20049;-80
2023/09/02 03:55:50;;;;;;;6.22;5.18;;;13.10;99.90;;;;;;5032924;28;20429;-79
2023/09/02 03:58:15;;;;;;;4.53;4.13;;;13.10;99.90;;;;;;5043536;28;20037;-79
2023/09/02 04:00:41;;;;;;;5.97;5.35;;;13.10;99.90;;;;;;5041452;28;20041;-79
2023/09/02 04:03:06;;;;;;;6.45;5.18;;;13.10;99.90;;;;;;5032133;28;20083;-80
2023/09/02 04:05:32;;;;;;;6.78;6.07;;;13.30;99.90;;;;;;5042457;28;20037;-80
2023/09/02 04:07:58;;;;;;;8.70;5.47;;;13.50;99.90;;;;;;5038597;28;20041;-80
2023/09/02 04:10:23;;;;;;;6.32;4.85;;;13.10;99.90;;;;;;5042446;28;20451;-80
2023/09/02 04:12:49;;;;;;;5.70;5.15;;;13.10;99.90;;;;;;5049439;28;20047;-80
2023/09/02 04:15:15;;;;;;;6.72;4.70;;;13.00;99.90;;;;;;5044553;28;20037;-80
2023/09/02 04:17:40;;;;;;;5.00;4.60;;;13.10;99.90;;;;;;5040044;28;20045;-80
2023/09/02 04:20:07;;;;;;;7.85;5.10;;;13.10;99.90;;;;;;5042559;28;20040;-80
2023/09/02 04:22:32;;;;;;;5.15;4.65;;;13.10;99.90;;;;;;5032218;28;20079;-79
2023/09/02 04:24:58;;;;;;;5.75;5.25;;;13.60;99.90;;;;;;5038899;28;20043;-79
2023/09/02 04:27:24;;;;;;;6.95;5.45;;;13.10;99.90;;;;;;5047864;28;20033;-80
2023/09/02 04:29:51;;;;;;;6.30;5.65;;;13.20;99.90;;;;;;5049760;28;20041;-78
2023/09/02 04:32:16;;;;;;;6.85;6.00;;;13.20;99.90;;;;;;5050855;28;20057;-80
2023/09/02 04:34:42;;;;;;;5.78;5.28;;;13.20;99.90;;;;;;5041736;28;20200;-79
2023/09/02 04:37:08;;;;;;;8.27;5.78;;;13.20;99.90;;;;;;5033033;28;20045;-79
2023/09/02 04:39:34;;;;;;;6.82;6.18;;;13.30;99.90;;;;;;5033023;28;20036;-79
2023/09/02 04:41:59;;;;;;;6.13;5.63;;;13.30;99.90;;;;;;5041505;28;20477;-80
2023/09/02 04:44:25;;;;;;;6.97;6.38;;;13.20;99.90;;;;;;5042700;28;20049;-79
2023/09/02 04:46:50;;;;;;;8.90;6.53;;;13.20;99.90;;;;;;5033523;28;20094;-78
2023/09/02 04:49:32;;;;;;;7.68;6.78;;;13.50;99.90;;;;;;5043885;28;20048;-81
2023/09/02 04:52:04;;;;;;;7.13;6.53;;;13.20;99.90;;;;;;5050061;28;20051;-79
2023/09/02 04:54:44;;;;;;;11.13;6.75;;;13.30;99.90;;;;;;5085685;22;20122;-79
2023/09/02 04:57:13;;;;;;;6.95;6.35;;;13.20;99.90;;;;;;5049750;28;20049;-80
2023/09/02 04:59:39;;;;;;;6.57;5.93;;;13.50;99.90;;;;;;5061413;28;20481;-80
2023/09/02 05:02:05;;;;;;;8.48;6.30;;;13.20;99.90;;;;;;5054728;28;20040;-80
2023/09/02 05:04:31;;;;;;;6.88;6.18;;;13.20;99.90;;;;;;5067460;28;20044;-78
2023/09/02 05:06:56;;;;;;;8.15;6.32;;;13.20;99.90;;;;;;5063903;28;20106;-80
2023/09/02 05:09:22;;;;;;;7.82;6.75;;;14.20;99.90;;;;;;5050552;28;20041;-80
2023/09/02 05:11:48;;;;;;;9.13;6.32;;;13.20;99.90;;;;;;5049470;28;20049;-80
2023/09/02 05:14:14;;;;;;;9.68;8.20;;;13.30;99.90;;;;;;5053853;28;20386;-80
2023/09/02 05:16:40;;;;;;;9.05;7.45;;;13.20;99.90;;;;;;5071631;28;20041;-80
2023/09/02 05:19:05;;;;;;;8.38;7.55;;;13.20;99.90;;;;;;5044088;28;20098;-80
2023/09/02 05:21:31;;;;;;;14.55;11.32;;;13.20;99.90;;;;;;5054935;28;20063;-80
2023/09/02 05:23:56;;;;;;;10.20;8.52;;;13.30;99.90;;;;;;5048793;28;20439;-80
2023/09/02 05:26:22;;;;;;;10.73;8.38;;;13.40;99.90;;;;;;5071594;28;20045;-79
2023/09/02 05:28:48;;;;;;;7.53;6.82;;;13.30;99.90;;;;;;5066688;28;20040;-81
2023/09/02 05:31:14;;;;;;;8.18;7.03;;;13.20;99.90;;;;;;5066169;28;20044;-78
2023/09/02 05:33:40;;;;;;;9.88;7.72;;;13.20;99.90;;;;;;5057339;28;20037;-80
2023/09/02 05:36:06;;;;;;;7.03;6.40;;;13.20;99.90;;;;;;5049033;28;20125;-80
2023/09/02 05:38:31;;;;;;;6.18;5.68;;;13.20;99.90;;;;;;5064580;28;20052;-79
2023/09/02 05:40:57;;;;;;;7.00;6.30;;;13.20;99.90;;;;;;5070638;28;20043;-79
2023/09/02 05:43:24;;;;;;;7.57;6.50;;;13.30;99.90;;;;;;5055610;28;20548;-80
2023/09/02 05:45:50;;;;;;;7.03;6.38;;;13.20;99.90;;;;;;5055034;28;20409;-80
2023/09/02 05:48:19;;;;;;;8.55;7.28;;;14.00;99.90;;;;;;5055752;28;20048;-81
2023/09/02 05:50:44;;;;;;;9.75;6.43;;;13.60;99.90;;;;;;5061673;28;20037;-80
2023/09/02 05:53:10;;;;;;;9.38;7.18;;;13.30;99.90;;;;;;5061153;28;20045;-80
2023/09/02 05:55:35;;;;;;;10.73;8.32;;;13.30;99.90;;;;;;5054098;28;20053;-81
2023/09/02 05:58:01;;;;;;;10.80;8.68;;;13.30;99.90;;;;;;5053925;28;20048;-79
2023/09/02 06:00:27;;;;;;;10.27;7.53;;;13.30;99.90;;;;;;5050673;28;20124;-80
2023/09/02 06:02:53;;;;;;;11.15;10.02;;;13.20;99.90;;;;;;5057103;28;20055;-79
2023/09/02 06:05:19;;;;;;;11.50;10.35;;;13.30;99.90;;;;;;5066858;28;20067;-81
2023/09/02 06:07:44;;;;;;;12.15;10.77;;;14.80;99.90;;;;;;5057356;28;20045;-80
2023/09/02 06:10:10;;;;;;;13.38;10.43;;;13.40;99.90;;;;;;5047790;28;20041;-80
2023/09/02 06:12:36;;;;;;;12.75;10.57;;;13.40;99.90;;;;;;5058746;28;20041;-80
2023/09/02 06:15:02;;;;;;;16.60;10.05;;;13.40;99.90;;;;;;5052861;28;20041;-81
2023/09/02 06:17:30;;;;;;;16.35;11.77;;;13.40;99.90;;;;;;5066770;28;20472;-79
2023/09/02 06:20:00;;;;;;;12.15;9.88;;;13.40;99.90;;;;;;5056141;28;20052;-81
2023/09/02 06:22:25;;;;;;;17.50;11.75;;;13.50;99.90;;;;;;5060597;28;20140;-80
2023/09/02 06:24:54;;;;;;;13.13;11.52;;;13.50;99.90;;;;;;5054151;28;20057;-80
2023/09/02 06:27:19;;;;;;;13.40;11.77;;;14.50;99.90;;;;;;5032717;28;20075;-80
2023/09/02 06:29:45;;;;;;;11.38;10.20;;;14.00;99.90;;;;;;5057338;28;20103;-79
2023/09/02 06:32:11;;;;;;;15.68;12.93;;;14.50;99.90;;;;;;5070515;28;20029;-80
2023/09/02 06:34:36;;;;;;;15.57;13.25;;;13.60;99.90;;;;;;5060241;28;20092;-80
2023/09/02 06:37:02;;;;;;;15.20;11.52;;;13.60;99.90;;;;;;5073657;28;20063;-80
2023/09/02 06:39:28;;;;;;;16.00;13.18;;;13.70;99.90;;;;;;5059497;28;20449;-81
2023/09/02 06:41:53;;;;;;;17.48;13.20;;;13.70;99.90;;;;;;5055768;28;20052;-80
2023/09/02 06:44:19;;;;;;;16.08;14.02;;;13.70;99.90;;;;;;5053541;28;20473;-79
2023/09/02 06:46:45;;;;;;;19.92;14.20;;;13.80;99.90;;;;;;5055249;28;20128;-80
2023/09/02 06:49:11;;;;;;;15.98;13.50;;;13.80;99.90;;;;;;5053067;28;20040;-80
2023/09/02 06:51:36;;;;;;;17.08;13.02;;;13.90;99.90;;;;;;5070480;28;20040;-78
2023/09/02 06:54:02;;;;;;;17.83;13.65;;;13.90;99.90;;;;;;5062848;28;20373;-79
2023/09/02 06:56:27;;;;;;;20.20;15.45;;;13.90;99.90;;;;;;5052276;28;20119;-79
2023/09/02 06:58:53;;;;;;;21.17;14.15;;;14.00;99.90;;;;;;5052245;28;20045;-79
2023/09/02 07:01:23;;;;;;;17.88;13.82;;;14.00;99.90;;;;;;5053068;28;20095;-79
2023/09/02 07:03:50;;;;;;;18.45;14.45;;;14.10;99.90;;;;;;5056472;28;20049;-79
2023/09/02 07:06:15;;;;;;;17.88;14.38;;;14.10;99.90;;;;;;5070512;28;20555;-79
2023/09/02 07:08:44;;;;;;;17.35;13.85;;;14.20;99.90;;;;;;5037767;28;20063;-79
2023/09/02 07:11:10;;;;;;;18.45;13.93;;;14.20;99.90;;;;;;5063158;28;20055;-79
2023/09/02 07:13:39;;;;;;;19.85;14.07;;;14.30;99.90;;;;;;5057216;28;20047;-80
2023/09/02 07:16:06;;;;;;;18.35;13.93;;;14.30;99.90;;;;;;5059832;28;20076;-78
2023/09/02 07:18:32;;;;;;;18.48;14.95;;;14.40;99.90;;;;;;5066855;28;20036;-77
2023/09/02 07:21:04;;;;;;;19.27;14.55;;;14.40;99.90;;;;;;5051175;28;20052;-78
2023/09/02 07:23:31;;;;;;;17.30;13.50;;;15.00;99.90;;;;;;5043964;28;20049;-76
2023/09/02 07:26:01;;;;;;;14.70;13.20;;;14.50;99.90;;;;;;5071116;28;20044;-77
2023/09/02 07:28:27;;;;;;;18.63;14.15;;;14.50;99.90;;;;;;5046839;28;20036;-77
2023/09/02 07:30:55;;;;;;;21.05;15.73;;;14.50;99.90;;;;;;5054443;28;20064;-77
2023/09/02 07:33:21;;;;;;;17.77;14.25;;;14.50;99.90;;;;;;5052307;28;20092;-77
2023/09/02 07:35:46;;;;;;;19.10;14.32;;;14.60;99.90;;;;;;5070460;28;20127;-77
2023/09/02 07:38:12;;;;;;;20.10;14.63;;;14.70;99.90;;;;;;5062199;28;20084;-79
2023/09/02 07:40:37;;;;;;;16.17;13.68;;;14.70;99.90;;;;;;5066341;28;20048;-79
2023/09/02 07:43:03;;;;;;;17.75;14.40;;;14.80;99.90;;;;;;5058151;28;20036;-80
2023/09/02 07:45:29;;;;;;;17.98;13.70;;;14.90;99.90;;;;;;5072007;28;20032;-80
2023/09/02 07:47:55;;;;;;;18.33;12.93;;;14.90;99.90;;;;;;5057093;28;20037;-80
2023/09/02 07:50:21;;;;;;;18.55;11.93;;;14.90;99.90;;;;;;5070808;28;20045;-79
2023/09/02 07:52:48;;;;;;;16.40;13.63;;;15.20;99.90;;;;;;5047342;28;20039;-82
2023/09/02 07:55:14;;;;;;;17.48;12.88;;;15.10;99.90;;;;;;5053531;28;20063;-81
2023/09/02 07:57:39;;;;;;;18.70;12.55;;;15.20;99.90;;;;;;5059925;28;20045;-80
2023/09/02 08:00:07;;;;;;;16.05;12.05;;;15.10;99.90;;;;;;5053092;28;20538;-81
2023/09/02 08:02:32;;;;;;;14.30;10.80;;;15.30;99.90;;;;;;5060421;28;20068;-82
2023/09/02 08:04:58;;;;;;;14.00;10.43;;;15.30;99.90;;;;;;5070919;28;20068;-80
2023/09/02 08:07:23;;;;;;;13.18;10.90;;;15.40;99.90;;;;;;5054094;28;20451;-78
2023/09/02 08:09:50;;;;;;;12.10;10.38;;;15.50;99.90;;;;;;5067391;28;20037;-77
2023/09/02 08:12:16;;;;;;;12.18;10.88;;;15.50;99.90;;;;;;5053317;28;20051;-79
2023/09/02 08:14:41;;;;;;;13.60;10.82;;;15.60;99.90;;;;;;5071581;28;20044;-81
2023/09/02 08:17:10;;;;;;;14.35;9.27;;;15.60;99.90;;;;;;5055260;28;20041;-82
2023/09/02 08:19:36;;;;;;;12.50;9.77;;;15.70;99.90;;;;;;5067309;28;20397;-80
2023/09/02 08:22:02;;;;;;;13.30;9.18;;;15.70;99.90;;;;;;5066169;28;20037;-82
2023/09/02 08:24:29;;;;;;;18.67;9.93;;;15.70;99.90;;;;;;5079214;28;20120;-79
2023/09/02 08:26:55;;;;;;;15.00;9.73;;;15.70;99.90;;;;;;5070264;28;20049;-79
2023/09/02 08:29:20;;;;;;;12.25;9.70;;;15.80;99.90;;;;;;5071299;28;20044;-84
2023/09/02 08:31:52;;;;;;;16.40;9.80;;;15.80;99.90;;;;;;5054617;28;20069;-84
2023/09/02 08:34:18;;;;;;;13.05;9.70;;;15.90;99.90;;;;;;5070849;28;20408;-84
2023/09/02 08:36:43;;;;;;;11.60;10.07;;;15.90;99.90;;;;;;5070222;28;20047;-84
2023/09/02 08:39:09;;;;;;;12.30;9.35;;;16.00;99.90;;;;;;5034750;28;20115;-86
2023/09/02 08:41:36;;;;;;;14.02;10.18;;;16.10;99.90;;;;;;5069269;28;20041;-83
2023/09/02 08:44:03;;;;;;;12.50;9.68;;;16.10;99.90;;;;;;5070623;28;20119;-79
2023/09/02 08:46:31;;;;;;;12.10;10.38;;;16.20;99.90;;;;;;5054654;28;20048;-85
2023/09/02 08:48:58;;;;;;;15.15;9.43;;;16.20;99.90;;;;;;5069593;28;20048;-84
2023/09/02 08:51:25;;;;;;;11.50;10.02;;;16.30;99.90;;;;;;5068262;28;20121;-83
2023/09/02 08:53:53;;;;;;;16.77;9.13;;;16.50;99.90;;;;;;5068803;28;20040;-83
2023/09/02 08:56:20;;;;;;;10.20;8.52;;;16.40;99.90;;;;;;5070449;28;20143;-82
2023/09/02 08:58:46;;;;;;;13.43;8.45;;;16.40;99.90;;;;;;5069518;28;20044;-78
2023/09/02 09:01:18;;;;;;;16.52;9.90;;;16.40;99.90;;;;;;5052003;28;20045;-78
2023/09/02 09:03:48;;;;;;;15.20;9.90;;;16.50;99.90;;;;;;5054153;28;20128;-78
2023/09/02 09:06:14;;;;;;;14.88;11.00;;;16.50;99.90;;;;;;5076932;28;20106;-78
2023/09/02 09:08:41;;;;;;;17.45;9.65;;;17.30;99.90;;;;;;5064084;28;20037;-77
2023/09/02 09:11:07;;;;;;;26.38;9.80;;;16.60;99.90;;;;;;5071961;28;20504;-78
2023/09/02 09:13:36;;;;;;;744.35;440.95;;;16.70;99.90;;;;;;5070146;28;20081;-78
2023/09/02 09:16:03;;;;;;;455.92;264.10;;;16.80;99.90;;;;;;5074340;28;20077;-79
2023/09/02 09:18:29;;;;;;;362.90;322.35;;;17.00;99.90;;;;;;5072047;28;20104;-77
2023/09/02 09:20:55;;;;;;;188.35;93.47;;;17.10;99.90;;;;;;5053824;28;20037;-80
2023/09/02 09:23:20;;;;;;;17.08;15.23;;;17.70;99.90;;;;;;5062467;28;20045;-80
2023/09/02 09:25:52;;;;;;;17.40;13.10;;;17.20;99.90;;;;;;5051830;28;20485;-78
2023/09/02 09:28:18;;;;;;;18.13;13.98;;;17.40;99.90;;;;;;5076904;28;20124;-80
2023/09/02 09:30:44;;;;;;;22.13;16.25;;;17.30;99.90;;;;;;5072041;28;20570;-80
2023/09/02 09:33:09;;;;;;;19.75;14.05;;;17.30;99.90;;;;;;5076756;28;20059;-79
2023/09/02 09:35:37;;;;;;;14.70;12.23;;;17.30;99.90;;;;;;5064211;28;20650;-83
2023/09/02 09:38:04;;;;;;;20.92;11.32;;;17.50;99.90;;;;;;5072908;28;20049;-80
2023/09/02 09:40:38;;;;;;;15.52;13.50;;;17.50;99.90;;;;;;5063209;28;20075;-80
2023/09/02 09:43:17;;;;;;;21.58;12.70;;;17.60;99.90;;;;;;5073384;28;20100;-81
2023/09/02 09:45:50;;;;;;;16.55;10.25;;;17.60;99.90;;;;;;5071570;28;20396;-81
2023/09/02 09:48:16;;;;;;;8.63;7.00;;;17.70;99.90;;;;;;4372193;28;10021537;-82
2023/09/02 09:50:42;;;;;;;13.63;9.38;;;17.70;99.90;;;;;;5066161;28;20568;-81
2023/09/02 09:53:09;;;;;;;18.73;11.18;;;17.80;99.90;;;;;;5050781;28;20492;-80
2023/09/02 09:55:36;;;;;;;11.13;9.98;;;17.80;99.90;;;;;;5070219;28;20063;-82
2023/09/02 09:58:03;;;;;;;12.63;9.55;;;17.80;99.90;;;;;;5069489;28;20037;-81
2023/09/02 10:00:29;;;;;;;15.40;9.68;;;17.80;99.90;;;;;;5072161;28;20040;-81
2023/09/02 10:03:00;;;;;;;13.20;9.40;;;17.80;99.90;;;;;;5073113;28;20486;-83
2023/09/02 10:05:31;;;;;;;16.60;9.27;;;17.80;99.90;;;;;;5054638;28;20070;-81
2023/09/02 10:08:04;;;;;;;25.60;9.55;;;17.80;99.90;;;;;;5081904;28;20542;-84
2023/09/02 10:10:31;;;;;;;16.23;8.70;;;17.90;99.90;;;;;;5046191;28;20122;-84
2023/09/02 10:12:58;;;;;;;11.85;7.15;;;17.80;99.90;;;;;;5072521;28;20052;-87
2023/09/02 10:15:26;;;;;;;12.95;8.00;;;18.30;99.90;;;;;;5070726;28;20051;-85
2023/09/02 10:18:06;;;;;;;10.20;7.82;;;17.80;99.90;;;;;;5065744;28;20037;-85
2023/09/02 10:20:35;;;;;;;12.48;8.20;;;17.80;99.90;;;;;;5070198;28;20485;-84
2023/09/02 10:23:10;;;;;;;11.85;8.20;;;17.70;99.90;;;;;;5056619;28;20189;-84
2023/09/02 10:26:00;;;;;;;14.70;8.60;;;17.80;99.90;;;;;;5068945;28;20048;-80
2023/09/02 10:28:37;;;;;;;13.70;7.80;;;17.80;99.90;;;;;;5055443;28;20056;-84
2023/09/02 10:31:25;;;;;;;12.32;8.25;;;17.80;99.90;;;;;;5064194;28;20406;-84
2023/09/02 10:34:06;;;;;;;8.35;7.18;;;18.00;99.90;;;;;;5060761;28;20110;-83
2023/09/02 10:36:36;;;;;;;14.32;9.93;;;18.10;99.90;;;;;;5053976;28;20048;-84
2023/09/02 10:39:03;;;;;;;13.18;11.75;;;18.30;99.90;;;;;;5068734;28;20071;-85
2023/09/02 10:41:32;;;;;;;8.32;6.63;;;18.30;99.90;;;;;;5053879;28;20476;-85
2023/09/02 10:44:00;;;;;;;9.98;6.70;;;18.40;99.90;;;;;;5052575;28;20123;-86
2023/09/02 10:46:26;;;;;;;12.70;7.03;;;18.30;99.90;;;;;;5053315;28;20052;-86
2023/09/02 10:48:52;;;;;;;12.50;8.07;;;18.40;99.90;;;;;;5051121;28;20694;-85
2023/09/02 10:51:19;;;;;;;9.50;7.55;;;18.30;99.90;;;;;;5053669;28;20045;-82
2023/09/02 10:53:48;;;;;;;15.35;6.53;;;18.30;99.90;;;;;;5061599;28;20108;-84
2023/09/02 10:56:31;;;;;;;9.38;7.95;;;18.30;99.90;;;;;;5054076;28;20059;-82
2023/09/02 10:59:01;;;;;;;13.38;8.27;;;19.00;99.90;;;;;;5055094;28;20532;-84
2023/09/02 11:01:43;;;;;;;10.43;7.45;;;18.40;99.90;;;;;;5031411;28;20036;-85
2023/09/02 11:04:08;;;;;;;8.65;6.82;;;18.50;99.90;;;;;;5049582;28;20045;-83
2023/09/02 11:06:34;;;;;;;7.70;6.88;;;18.70;99.90;;;;;;5037575;28;20040;-83
2023/09/02 11:09:00;;;;;;;10.27;6.32;;;18.70;99.90;;;;;;5053311;28;20041;-84
2023/09/02 11:12:06;;;;;;;7.65;5.88;;;18.90;99.90;;;;;;5062291;28;20048;-87
2023/09/02 11:14:32;;;;;;;14.57;5.45;;;19.10;99.90;;;;;;5062486;28;20119;-90
2023/09/02 11:17:37;;;;;;;9.02;5.65;;;19.10;99.90;;;;;;5067820;28;20045;-80
2023/09/02 11:20:05;;;;;;;9.10;5.68;;;19.20;99.90;;;;;;4984334;28;20100;-79
2023/09/02 11:22:59;;;;;;;7.57;6.05;;;19.20;99.90;;;;;;4984165;28;20046;-80
2023/09/02 11:25:43;;;;;;;16.08;9.00;;;19.30;99.90;;;;;;5048735;28;20060;-80
2023/09/02 11:28:23;;;;;;;9.93;6.40;;;19.40;99.90;;;;;;5039136;28;20091;-81
2023/09/02 11:31:09;;;;;;;9.27;5.43;;;19.50;99.90;;;;;;5071492;28;20049;-81
2023/09/02 11:33:37;;;;;;;11.23;6.55;;;19.60;99.90;;;;;;5073010;28;20127;-80
2023/09/02 11:36:07;;;;;;;9.63;5.97;;;19.60;99.90;;;;;;5055163;28;20041;-81
2023/09/02 11:38:34;;;;;;;6.57;5.47;;;19.70;99.90;;;;;;5062888;28;20048;-81
2023/09/02 11:41:00;;;;;;;7.28;5.30;;;19.80;99.90;;;;;;5053191;28;20033;-80
2023/09/02 11:43:31;;;;;;;9.40;5.03;;;19.90;99.90;;;;;;5059607;28;20049;-80
2023/09/02 11:45:58;;;;;;;13.30;4.97;;;20.00;99.90;;;;;;5033626;28;20045;-78
2023/09/02 11:48:28;;;;;;;8.55;4.95;;;20.00;99.90;;;;;;5075500;28;20400;-79
2023/09/02 11:50:58;;;;;;;8.13;4.72;;;20.20;99.90;;;;;;5059798;28;20481;-77
2023/09/02 11:53:25;;;;;;;10.05;5.53;;;20.40;99.90;;;;;;5084311;28;20044;-77
2023/09/02 11:55:51;;;;;;;9.57;4.40;;;20.50;99.90;;;;;;5073804;28;20051;-78
2023/09/02 11:58:18;;;;;;;8.43;4.63;;;20.60;99.90;;;;;;5068231;28;20048;-78
2023/09/02 12:00:45;;;;;;;5.47;4.20;;;20.60;99.90;;;;;;5067304;28;20036;-78
2023/09/02 12:03:13;;;;;;;7.78;4.10;;;20.60;99.90;;;;;;5073113;28;20573;-78
2023/09/02 12:05:49;;;;;;;5.53;4.00;;;20.70;99.90;;;;;;5064027;28;20031;-76
2023/09/02 12:08:17;;;;;;;6.85;3.22;;;20.80;99.90;;;;;;5066432;28;20408;-77
2023/09/02 12:10:45;;;;;;;5.85;3.30;;;20.80;99.90;;;;;;5068965;28;20107;-78
2023/09/02 12:13:11;;;;;;;6.03;3.17;;;21.00;99.90;;;;;;5047803;28;20135;-80
2023/09/02 12:15:37;;;;;;;5.20;2.95;;;21.00;99.90;;;;;;5070655;28;20507;-79
2023/09/02 12:18:05;;;;;;;4.93;3.13;;;20.90;99.90;;;;;;5065487;28;20032;-79
2023/09/02 12:20:31;;;;;;;5.13;3.17;;;20.80;99.90;;;;;;5061538;28;20045;-80
2023/09/02 12:22:57;;;;;;;3.90;3.15;;;20.80;99.90;;;;;;5058066;28;20037;-79
2023/09/02 12:25:24;;;;;;;3.75;3.20;;;20.70;99.90;;;;;;5071160;28;20047;-79
2023/09/02 12:27:51;;;;;;;4.03;3.00;;;20.80;99.90;;;;;;5067372;28;20137;-78
2023/09/02 12:30:33;;;;;;;3.65;2.45;;;20.90;99.90;;;;;;5061220;28;20041;-79
2023/09/02 12:32:58;;;;;;;3.83;2.75;;;21.00;99.90;;;;;;5064810;28;20537;-79
2023/09/02 12:35:25;;;;;;;3.92;2.22;;;21.00;99.90;;;;;;5068026;28;20120;-79
2023/09/02 12:38:05;;;;;;;8.02;2.80;;;21.10;99.90;;;;;;5068054;28;20047;-79
2023/09/02 12:40:31;;;;;;;8.50;2.70;;;21.20;99.90;;;;;;5065660;28;20415;-79
2023/09/02 12:42:59;;;;;;;4.25;2.70;;;21.20;99.90;;;;;;5065901;28;20040;-79
2023/09/02 12:45:29;;;;;;;4.50;2.42;;;21.30;99.90;;;;;;5060470;28;20049;-79